Time;durP1;ratioP1;P1;durP2;ratioP2;P2;SDS_P1;SDS_P2;PMS_P1;PMS_P2;Temp;Humidity;BMP_temperature;BMP_pressure;BME280_temperature;BME280_humidity;BME280_pressure;Samples;Min_cycle;Max_cycle;Signal;HPM_P1;HPM_P2
2022/12/02 00:01:36;;;;;;;21.10;12.53;;;;;;;;;;5017788;28;20359;-25
2022/12/02 00:04:09;;;;;;;21.60;12.60;;;;;;;;;;5034447;28;20274;-23
2022/12/02 00:06:38;;;;;;;17.90;11.17;;;;;;;;;;5048100;28;20221;-23
2022/12/02 00:09:14;;;;;;;21.93;12.20;;;;;;;;;;5029419;28;20305;-26
2022/12/02 00:11:41;;;;;;;23.33;12.53;;;;;;;;;;5029761;28;20230;-25
2022/12/02 00:14:15;;;;;;;18.23;11.40;;;;;;;;;;5032562;28;20202;-26
2022/12/02 00:16:42;;;;;;;19.10;11.57;;;;;;;;;;5019115;28;20208;-25
2022/12/02 00:19:09;;;;;;;23.67;12.37;;;;;;;;;;5047382;28;20204;-25
2022/12/02 00:21:36;;;;;;;17.90;11.37;;;;;;;;;;5042828;28;20593;-23
2022/12/02 00:24:03;;;;;;;24.13;12.63;;;;;;;;;;5044097;28;20300;-26
2022/12/02 00:26:32;;;;;;;21.43;11.70;;;;;;;;;;5031590;28;20222;-28
2022/12/02 00:28:59;;;;;;;21.07;11.83;;;;;;;;;;5037705;28;20312;-24
2022/12/02 00:31:26;;;;;;;20.97;12.10;;;;;;;;;;5019566;28;20229;-26
2022/12/02 00:33:55;;;;;;;19.90;12.23;;;;;;;;;;5031591;28;20285;-24
2022/12/02 00:36:22;;;;;;;24.57;12.43;;;;;;;;;;5041499;28;20233;-24
2022/12/02 00:38:49;;;;;;;21.17;10.83;;;;;;;;;;5024816;28;20299;-25
2022/12/02 00:41:16;;;;;;;21.03;12.07;;;;;;;;;;5028428;28;20228;-26
2022/12/02 00:46:33;;;;;;;24.73;13.87;;;;;;;;;;5026425;28;20336;-26
2022/12/02 00:49:01;;;;;;;20.40;12.13;;;;;;;;;;5033002;28;20209;-25
2022/12/02 00:51:28;;;;;;;21.07;12.80;;;;;;;;;;5028684;28;20240;-26
2022/12/02 00:53:55;;;;;;;23.60;12.60;;;;;;;;;;5040563;28;20208;-25
2022/12/02 00:56:22;;;;;;;21.47;12.60;;;;;;;;;;5030742;28;20198;-24
2022/12/02 00:58:51;;;;;;;21.53;13.50;;;;;;;;;;5036999;28;20202;-24
2022/12/02 01:01:18;;;;;;;21.57;11.50;;;;;;;;;;5026191;28;20309;-23
2022/12/02 01:03:46;;;;;;;21.47;12.13;;;;;;;;;;5023207;28;20692;-26
2022/12/02 01:06:13;;;;;;;17.90;10.40;;;;;;;;;;5020705;28;20249;-26
2022/12/02 01:08:40;;;;;;;22.13;12.17;;;;;;;;;;5027507;28;20198;-26
2022/12/02 01:11:07;;;;;;;17.23;11.37;;;;;;;;;;5029839;28;20313;-27
2022/12/02 01:13:35;;;;;;;20.53;12.27;;;;;;;;;;5021827;28;20221;-26
2022/12/02 01:18:32;;;;;;;18.53;11.50;;;;;;;;;;5038892;28;20249;-27
2022/12/02 01:20:59;;;;;;;20.77;11.87;;;;;;;;;;5030114;28;20222;-27
2022/12/02 01:23:26;;;;;;;21.50;12.23;;;;;;;;;;5012603;28;20257;-25
2022/12/02 01:25:53;;;;;;;21.87;12.57;;;;;;;;;;5023553;28;20207;-26
2022/12/02 01:28:20;;;;;;;19.60;11.90;;;;;;;;;;5026702;28;20213;-27
2022/12/02 01:30:47;;;;;;;21.90;12.80;;;;;;;;;;5000546;28;20227;-29
2022/12/02 01:33:14;;;;;;;22.37;12.27;;;;;;;;;;5001272;28;20214;-28
2022/12/02 01:35:43;;;;;;;20.37;11.83;;;;;;;;;;5021635;28;20225;-27
2022/12/02 01:38:10;;;;;;;19.47;11.97;;;;;;;;;;5018929;28;20199;-26
2022/12/02 01:40:37;;;;;;;20.17;11.57;;;;;;;;;;5010354;28;20229;-29
2022/12/02 01:43:05;;;;;;;22.43;13.27;;;;;;;;;;5019196;28;20217;-28
2022/12/02 01:45:32;;;;;;;18.97;10.70;;;;;;;;;;5013388;28;20206;-28
2022/12/02 01:48:00;;;;;;;22.17;12.17;;;;;;;;;;5015916;28;20233;-26
2022/12/02 01:50:27;;;;;;;18.73;11.50;;;;;;;;;;5020057;28;20310;-25
2022/12/02 01:52:55;;;;;;;20.63;12.27;;;;;;;;;;5011178;28;20203;-27
2022/12/02 01:55:23;;;;;;;21.00;12.07;;;;;;;;;;4997279;28;20218;-27
2022/12/02 01:57:51;;;;;;;23.47;13.43;;;;;;;;;;5016643;28;20201;-24
2022/12/02 02:00:18;;;;;;;21.10;12.73;;;;;;;;;;5006506;28;20234;-28
2022/12/02 02:02:46;;;;;;;23.33;12.90;;;;;;;;;;5009525;28;20211;-32
2022/12/02 02:05:14;;;;;;;21.40;12.43;;;;;;;;;;5013679;28;20234;-31
2022/12/02 02:07:41;;;;;;;19.83;11.23;;;;;;;;;;5022688;28;20219;-30
2022/12/02 02:10:10;;;;;;;19.90;12.13;;;;;;;;;;5021402;28;20213;-31
2022/12/02 02:12:37;;;;;;;19.90;11.23;;;;;;;;;;5008354;28;20212;-32
2022/12/02 02:15:06;;;;;;;19.37;11.33;;;;;;;;;;5015994;28;20295;-29
2022/12/02 02:17:34;;;;;;;20.47;12.20;;;;;;;;;;5004423;28;20225;-28
2022/12/02 02:20:02;;;;;;;19.57;11.73;;;;;;;;;;5027001;28;20229;-29
2022/12/02 02:22:32;;;;;;;17.83;10.90;;;;;;;;;;5007359;28;20217;-32
2022/12/02 02:25:00;;;;;;;18.23;11.30;;;;;;;;;;5001496;28;20203;-30
2022/12/02 02:27:28;;;;;;;23.80;13.17;;;;;;;;;;5016148;28;20237;-29
2022/12/02 02:29:55;;;;;;;21.80;12.47;;;;;;;;;;5013433;28;20199;-29
2022/12/02 02:32:22;;;;;;;22.13;11.73;;;;;;;;;;5010592;28;20237;-31
2022/12/02 02:34:49;;;;;;;20.17;11.77;;;;;;;;;;5021841;28;20209;-31
2022/12/02 02:37:16;;;;;;;21.87;11.57;;;;;;;;;;5016670;28;20214;-29
2022/12/02 02:39:43;;;;;;;17.60;11.07;;;;;;;;;;5011224;28;20225;-30
2022/12/02 02:42:12;;;;;;;21.53;11.90;;;;;;;;;;5011730;28;20295;-30
2022/12/02 02:44:39;;;;;;;19.60;12.83;;;;;;;;;;5019097;28;20204;-31
2022/12/02 02:47:06;;;;;;;23.03;12.53;;;;;;;;;;5006126;28;20237;-28
2022/12/02 02:49:33;;;;;;;22.50;11.73;;;;;;;;;;5019867;28;20210;-31
2022/12/02 02:52:00;;;;;;;20.70;12.27;;;;;;;;;;5027236;28;20226;-28
2022/12/02 02:54:27;;;;;;;20.63;11.93;;;;;;;;;;5016814;28;20289;-30
2022/12/02 02:56:55;;;;;;;22.73;12.70;;;;;;;;;;5000740;28;20204;-27
2022/12/02 02:59:23;;;;;;;22.80;12.87;;;;;;;;;;5013296;28;20302;-32
2022/12/02 03:01:51;;;;;;;22.30;12.07;;;;;;;;;;5007865;28;20218;-26
2022/12/02 03:04:20;;;;;;;21.23;12.47;;;;;;;;;;5028520;28;20210;-28
2022/12/02 03:06:48;;;;;;;18.53;11.73;;;;;;;;;;5009242;28;20227;-29
2022/12/02 03:09:16;;;;;;;21.87;12.73;;;;;;;;;;5000737;28;20214;-31
2022/12/02 03:11:44;;;;;;;22.33;11.80;;;;;;;;;;5020084;28;20222;-26
2022/12/02 03:14:12;;;;;;;19.97;11.37;;;;;;;;;;5023489;28;20209;-26
2022/12/02 03:16:40;;;;;;;19.50;11.47;;;;;;;;;;4998821;28;20253;-31
2022/12/02 03:19:08;;;;;;;21.27;11.97;;;;;;;;;;5008613;28;20199;-31
2022/12/02 03:21:35;;;;;;;20.33;11.77;;;;;;;;;;5014089;28;20226;-29
2022/12/02 03:24:03;;;;;;;18.50;12.13;;;;;;;;;;5010322;28;20373;-29
2022/12/02 03:26:31;;;;;;;21.17;12.13;;;;;;;;;;5007371;28;20207;-30
2022/12/02 03:28:59;;;;;;;23.87;12.47;;;;;;;;;;5013000;28;20273;-28
2022/12/02 03:31:27;;;;;;;22.27;12.93;;;;;;;;;;4996789;28;20232;-30
2022/12/02 03:33:56;;;;;;;18.83;11.00;;;;;;;;;;5018271;28;20215;-29
2022/12/02 03:36:23;;;;;;;19.37;11.10;;;;;;;;;;5024880;28;20204;-28
2022/12/02 03:38:51;;;;;;;20.60;11.87;;;;;;;;;;5014104;28;20210;-29
2022/12/02 03:41:18;;;;;;;18.00;10.07;;;;;;;;;;5018286;28;20223;-27
2022/12/02 03:43:46;;;;;;;19.13;11.40;;;;;;;;;;5024591;28;20281;-30
2022/12/02 03:46:13;;;;;;;19.97;11.47;;;;;;;;;;5007132;28;20211;-30
2022/12/02 03:48:40;;;;;;;21.33;11.63;;;;;;;;;;5013552;28;20230;-27
2022/12/02 03:51:09;;;;;;;22.03;11.80;;;;;;;;;;5013195;28;20227;-31
2022/12/02 03:53:36;;;;;;;22.70;12.73;;;;;;;;;;5013432;28;20200;-33
2022/12/02 03:56:04;;;;;;;19.87;11.47;;;;;;;;;;5001508;28;20237;-31
2022/12/02 03:58:35;;;;;;;18.63;11.03;;;;;;;;;;5020826;28;20224;-28
2022/12/02 04:01:02;;;;;;;21.00;12.63;;;;;;;;;;5008212;28;20306;-28
2022/12/02 04:03:30;;;;;;;21.67;12.03;;;;;;;;;;5017381;28;20227;-29
2022/12/02 04:05:57;;;;;;;21.17;12.17;;;;;;;;;;5031137;28;20301;-30
2022/12/02 04:08:25;;;;;;;23.27;12.50;;;;;;;;;;5007794;28;20227;-27
2022/12/02 04:10:52;;;;;;;19.47;11.33;;;;;;;;;;5015844;28;20225;-28
2022/12/02 04:13:20;;;;;;;21.27;11.90;;;;;;;;;;5031013;28;20202;-31
2022/12/02 04:15:48;;;;;;;20.10;12.10;;;;;;;;;;5006942;28;20218;-27
2022/12/02 04:18:15;;;;;;;21.00;10.93;;;;;;;;;;5010803;28;20214;-32
2022/12/02 04:20:42;;;;;;;23.00;12.70;;;;;;;;;;5021356;28;20221;-32
2022/12/02 04:23:09;;;;;;;17.37;10.60;;;;;;;;;;5027869;28;20206;-31
2022/12/02 04:25:38;;;;;;;18.43;10.83;;;;;;;;;;5015160;28;20554;-29
2022/12/02 04:28:05;;;;;;;19.43;11.57;;;;;;;;;;5018354;28;20222;-30
2022/12/02 04:30:33;;;;;;;21.77;12.13;;;;;;;;;;5015867;28;20273;-29
2022/12/02 04:33:00;;;;;;;18.07;11.43;;;;;;;;;;5007286;28;20207;-33
2022/12/02 04:35:27;;;;;;;20.67;10.90;;;;;;;;;;5029668;28;20420;-30
2022/12/02 04:37:55;;;;;;;18.80;12.07;;;;;;;;;;5026298;28;20199;-27
2022/12/02 04:40:22;;;;;;;19.73;11.83;;;;;;;;;;5019401;28;20289;-30
2022/12/02 04:42:51;;;;;;;22.00;12.30;;;;;;;;;;5011273;28;20302;-29
2022/12/02 04:45:18;;;;;;;23.07;11.53;;;;;;;;;;5003016;28;20211;-27
2022/12/02 04:47:45;;;;;;;20.27;10.83;;;;;;;;;;5011545;28;20219;-29
2022/12/02 04:50:13;;;;;;;18.30;10.97;;;;;;;;;;5009833;28;20299;-32
2022/12/02 04:52:40;;;;;;;20.17;10.40;;;;;;;;;;5012029;28;20208;-28
2022/12/02 04:55:07;;;;;;;19.07;10.53;;;;;;;;;;5005203;28;20204;-29
2022/12/02 04:57:34;;;;;;;20.13;11.47;;;;;;;;;;5019209;28;20294;-31
2022/12/02 05:00:03;;;;;;;22.80;11.83;;;;;;;;;;5010127;28;20305;-31
2022/12/02 05:02:30;;;;;;;22.23;12.27;;;;;;;;;;5012318;28;20218;-29
2022/12/02 05:04:57;;;;;;;21.10;12.43;;;;;;;;;;5021699;28;20221;-28
2022/12/02 05:07:25;;;;;;;18.37;10.33;;;;;;;;;;5027870;28;20316;-28
2022/12/02 05:09:52;;;;;;;20.73;11.57;;;;;;;;;;5009513;28;20218;-28
2022/12/02 05:12:19;;;;;;;22.10;11.40;;;;;;;;;;5019061;28;20228;-26
2022/12/02 05:14:46;;;;;;;21.43;11.57;;;;;;;;;;5022456;28;20207;-28
2022/12/02 05:17:14;;;;;;;24.07;13.00;;;;;;;;;;4992942;28;20216;-28
2022/12/02 05:19:42;;;;;;;20.97;12.07;;;;;;;;;;5012185;28;20207;-26
2022/12/02 05:22:09;;;;;;;21.77;11.30;;;;;;;;;;5026420;28;20282;-31
2022/12/02 05:24:36;;;;;;;19.50;11.57;;;;;;;;;;5014157;28;20214;-30
2022/12/02 05:27:04;;;;;;;21.40;11.27;;;;;;;;;;5016622;28;20214;-27
2022/12/02 05:29:31;;;;;;;19.40;11.43;;;;;;;;;;5020445;28;20228;-30
2022/12/02 05:31:58;;;;;;;20.07;12.00;;;;;;;;;;4999070;28;20234;-29
2022/12/02 05:34:26;;;;;;;23.00;12.37;;;;;;;;;;5009359;28;20203;-30
2022/12/02 05:36:53;;;;;;;19.47;11.33;;;;;;;;;;5023573;28;20209;-33
2022/12/02 05:39:21;;;;;;;23.33;12.30;;;;;;;;;;5002446;28;20214;-29
2022/12/02 05:41:48;;;;;;;17.87;11.60;;;;;;;;;;5015059;28;20266;-29
2022/12/02 05:44:20;;;;;;;20.30;10.70;;;;;;;;;;4999143;28;20267;-28
2022/12/02 05:46:47;;;;;;;20.83;12.17;;;;;;;;;;5004846;28;20230;-28
2022/12/02 05:49:16;;;;;;;18.13;11.37;;;;;;;;;;5007981;28;20216;-29
2022/12/02 05:51:45;;;;;;;22.97;12.27;;;;;;;;;;5026333;28;20242;-29
2022/12/02 05:54:18;;;;;;;22.43;12.47;;;;;;;;;;5003056;28;20210;-25
2022/12/02 05:56:47;;;;;;;20.30;11.20;;;;;;;;;;5016739;28;20207;-29
2022/12/02 05:59:15;;;;;;;19.30;11.37;;;;;;;;;;5010384;28;20236;-27
2022/12/02 06:01:42;;;;;;;24.33;12.63;;;;;;;;;;5001228;28;20234;-28
2022/12/02 06:04:13;;;;;;;21.33;11.67;;;;;;;;;;5001290;28;20203;-30
2022/12/02 06:06:40;;;;;;;20.30;11.60;;;;;;;;;;5007663;28;20199;-32
2022/12/02 06:09:14;;;;;;;21.10;11.70;;;;;;;;;;5011399;28;20306;-27
2022/12/02 06:11:41;;;;;;;20.30;11.30;;;;;;;;;;5004545;28;20235;-29
2022/12/02 06:14:11;;;;;;;21.07;12.30;;;;;;;;;;5008804;28;20302;-28
2022/12/02 06:16:38;;;;;;;17.03;10.07;;;;;;;;;;5002668;28;20203;-28
2022/12/02 06:19:14;;;;;;;22.27;12.23;;;;;;;;;;5007909;28;20193;-27
2022/12/02 06:21:41;;;;;;;20.07;12.23;;;;;;;;;;5012766;28;20632;-32
2022/12/02 06:24:10;;;;;;;21.07;12.47;;;;;;;;;;5006926;28;20203;-31
2022/12/02 06:26:39;;;;;;;22.70;12.77;;;;;;;;;;5010631;28;20215;-29
2022/12/02 06:29:06;;;;;;;20.13;12.33;;;;;;;;;;5009575;28;20215;-27
2022/12/02 06:31:36;;;;;;;20.33;11.97;;;;;;;;;;5004061;28;20223;-30
2022/12/02 06:34:11;;;;;;;24.97;12.73;;;;;;;;;;5009760;28;20207;-27
2022/12/02 06:36:38;;;;;;;19.17;11.37;;;;;;;;;;5014038;28;20477;-29
2022/12/02 06:39:16;;;;;;;21.40;12.33;;;;;;;;;;5011886;28;20263;-28
2022/12/02 06:41:44;;;;;;;20.80;11.63;;;;;;;;;;5005336;28;20234;-29
2022/12/02 06:46:59;;;;;;;20.70;11.30;;;;;;;;;;5008103;28;20242;-32
2022/12/02 06:49:31;;;;;;;20.23;11.87;;;;;;;;;;5010546;28;20223;-25
2022/12/02 06:51:59;;;;;;;19.80;11.07;;;;;;;;;;5012911;28;20218;-27
2022/12/02 06:54:28;;;;;;;19.60;11.17;;;;;;;;;;5002561;28;20228;-27
2022/12/02 06:56:58;;;;;;;16.70;11.27;;;;;;;;;;5020128;28;20195;-29
2022/12/02 06:59:25;;;;;;;21.10;12.40;;;;;;;;;;5007195;28;20207;-30
2022/12/02 07:01:54;;;;;;;20.17;11.07;;;;;;;;;;5007586;28;20224;-32
2022/12/02 07:04:32;;;;;;;19.47;11.07;;;;;;;;;;5012752;28;20207;-27
2022/12/02 07:07:02;;;;;;;17.63;10.10;;;;;;;;;;4995485;28;20330;-25
2022/12/02 07:09:32;;;;;;;20.27;11.13;;;;;;;;;;5008513;28;20234;-31
2022/12/02 07:12:01;;;;;;;19.47;11.37;;;;;;;;;;5004485;28;20231;-27
2022/12/02 07:14:30;;;;;;;19.03;10.80;;;;;;;;;;5009179;28;20274;-30
2022/12/02 07:16:58;;;;;;;21.27;11.60;;;;;;;;;;5012136;28;20229;-28
2022/12/02 07:19:31;;;;;;;17.30;10.37;;;;;;;;;;5266566;22;21214;-29
2022/12/02 07:21:58;;;;;;;22.80;12.73;;;;;;;;;;5003942;28;20590;-29
2022/12/02 07:24:25;;;;;;;17.90;10.90;;;;;;;;;;5004811;28;20208;-29
2022/12/02 07:26:53;;;;;;;20.40;11.57;;;;;;;;;;5009154;28;20205;-28
2022/12/02 07:29:27;;;;;;;20.93;12.47;;;;;;;;;;5015145;28;20310;-28
2022/12/02 07:31:54;;;;;;;18.67;11.37;;;;;;;;;;5003301;28;20305;-28
2022/12/02 07:34:21;;;;;;;20.57;12.00;;;;;;;;;;5008880;28;20204;-28
2022/12/02 07:36:48;;;;;;;21.53;11.70;;;;;;;;;;5020680;28;20199;-28
2022/12/02 07:39:15;;;;;;;22.80;11.47;;;;;;;;;;5017364;28;20293;-26
2022/12/02 07:41:43;;;;;;;20.33;11.93;;;;;;;;;;5010431;28;20231;-26
2022/12/02 07:44:10;;;;;;;18.47;10.67;;;;;;;;;;5013960;28;20284;-27
2022/12/02 07:46:38;;;;;;;20.67;11.57;;;;;;;;;;5008781;28;20528;-26
2022/12/02 07:49:05;;;;;;;18.57;11.30;;;;;;;;;;5008663;28;20227;-29
2022/12/02 07:51:33;;;;;;;18.57;11.40;;;;;;;;;;5015278;28;20742;-27
2022/12/02 07:54:00;;;;;;;20.80;11.37;;;;;;;;;;5012932;28;20214;-25
2022/12/02 07:56:27;;;;;;;20.30;12.20;;;;;;;;;;5010864;28;20215;-26
2022/12/02 07:58:54;;;;;;;20.80;12.37;;;;;;;;;;5017595;28;20282;-27
2022/12/02 08:01:22;;;;;;;20.57;12.27;;;;;;;;;;5007811;28;20219;-26
2022/12/02 08:03:51;;;;;;;19.00;10.97;;;;;;;;;;5005926;28;20211;-28
2022/12/02 08:06:18;;;;;;;19.60;10.57;;;;;;;;;;5004495;28;20847;-26
2022/12/02 08:08:51;;;;;;;19.63;11.37;;;;;;;;;;5015203;28;20231;-27
2022/12/02 08:11:18;;;;;;;18.33;10.50;;;;;;;;;;5012747;28;20313;-29
2022/12/02 08:13:45;;;;;;;16.13;10.10;;;;;;;;;;5013549;28;20271;-27
2022/12/02 08:16:13;;;;;;;19.40;11.63;;;;;;;;;;5000813;28;20210;-28
2022/12/02 08:18:40;;;;;;;21.17;10.83;;;;;;;;;;5012824;28;20207;-26
2022/12/02 08:21:08;;;;;;;17.47;10.30;;;;;;;;;;5010535;28;20250;-26
2022/12/02 08:23:35;;;;;;;19.13;11.73;;;;;;;;;;5011487;28;20208;-26
2022/12/02 08:26:03;;;;;;;18.90;10.33;;;;;;;;;;5013045;28;20211;-27
2022/12/02 08:28:30;;;;;;;18.77;12.07;;;;;;;;;;4993246;28;20231;-29
2022/12/02 08:30:57;;;;;;;17.13;10.70;;;;;;;;;;5007998;28;20235;-27
2022/12/02 08:33:24;;;;;;;18.33;11.27;;;;;;;;;;5014648;28;20206;-28
2022/12/02 08:35:51;;;;;;;19.50;10.80;;;;;;;;;;5016915;28;20203;-27
2022/12/02 08:38:20;;;;;;;26.83;11.70;;;;;;;;;;5018018;28;20290;-31
2022/12/02 08:40:47;;;;;;;20.67;11.40;;;;;;;;;;5004519;28;20220;-26
2022/12/02 08:43:43;;;;;;;19.80;10.93;;;;;;;;;;5011468;28;20294;-26
2022/12/02 08:46:10;;;;;;;20.63;11.63;;;;;;;;;;5012428;28;20257;-25
2022/12/02 08:48:39;;;;;;;21.03;10.97;;;;;;;;;;5007566;28;20229;-27
2022/12/02 08:51:06;;;;;;;18.20;10.87;;;;;;;;;;5015708;28;20230;-26
2022/12/02 08:53:35;;;;;;;22.80;12.70;;;;;;;;;;5016263;28;20207;-28
2022/12/02 08:56:03;;;;;;;22.03;11.90;;;;;;;;;;5008718;28;20212;-28
2022/12/02 08:58:30;;;;;;;18.33;11.50;;;;;;;;;;5003628;28;20210;-26
2022/12/02 09:00:57;;;;;;;20.33;11.87;;;;;;;;;;5012915;28;20243;-29
2022/12/02 09:03:24;;;;;;;23.33;11.53;;;;;;;;;;5006999;28;20215;-26
2022/12/02 09:05:51;;;;;;;20.77;11.13;;;;;;;;;;5006225;28;20867;-28
2022/12/02 09:08:18;;;;;;;19.47;11.10;;;;;;;;;;5006923;28;20198;-28
2022/12/02 09:10:47;;;;;;;19.47;10.73;;;;;;;;;;5012781;28;20649;-27
2022/12/02 09:13:14;;;;;;;19.60;10.87;;;;;;;;;;5021909;28;20207;-26
2022/12/02 09:15:41;;;;;;;19.23;10.60;;;;;;;;;;5006835;28;20218;-28
2022/12/02 09:18:08;;;;;;;19.37;11.30;;;;;;;;;;4999545;28;20204;-28
2022/12/02 09:20:35;;;;;;;18.83;10.43;;;;;;;;;;4992931;28;20299;-26
2022/12/02 09:23:03;;;;;;;18.93;10.60;;;;;;;;;;5012569;28;20217;-28
2022/12/02 09:25:30;;;;;;;19.97;11.40;;;;;;;;;;5013306;28;20294;-30
2022/12/02 09:27:58;;;;;;;20.00;12.77;;;;;;;;;;4998293;28;20302;-27
2022/12/02 09:30:53;;;;;;;21.47;10.87;;;;;;;;;;4998945;28;20323;-26
2022/12/02 09:33:21;;;;;;;19.77;10.93;;;;;;;;;;5007758;28;20218;-26
2022/12/02 09:35:48;;;;;;;22.90;12.13;;;;;;;;;;5013094;28;20290;-27
2022/12/02 09:38:15;;;;;;;16.90;10.10;;;;;;;;;;5012427;28;20212;-24
2022/12/02 09:40:42;;;;;;;22.30;11.17;;;;;;;;;;5005971;28;20230;-28
2022/12/02 09:43:11;;;;;;;19.63;11.20;;;;;;;;;;5002967;28;20204;-26
2022/12/02 09:45:38;;;;;;;19.97;10.53;;;;;;;;;;4998253;28;20219;-28
2022/12/02 09:48:07;;;;;;;23.07;11.30;;;;;;;;;;5004485;28;20257;-28
2022/12/02 09:50:35;;;;;;;18.73;10.43;;;;;;;;;;5007885;28;20331;-27
2022/12/02 09:53:04;;;;;;;18.53;10.63;;;;;;;;;;5020475;28;20209;-28
2022/12/02 09:55:32;;;;;;;21.63;10.70;;;;;;;;;;4999742;28;20215;-27
2022/12/02 09:58:06;;;;;;;18.53;11.20;;;;;;;;;;5013465;28;20204;-27
2022/12/02 10:00:35;;;;;;;19.17;11.03;;;;;;;;;;5002939;28;20219;-27
2022/12/02 10:03:02;;;;;;;18.57;11.27;;;;;;;;;;5014289;28;20213;-26
2022/12/02 10:05:29;;;;;;;17.67;10.33;;;;;;;;;;5012653;28;20207;-29
2022/12/02 10:07:58;;;;;;;16.43;9.93;;;;;;;;;;5012037;28;20692;-27
2022/12/02 10:10:28;;;;;;;16.33;9.57;;;;;;;;;;5007365;28;20780;-28
2022/12/02 10:12:55;;;;;;;19.23;10.70;;;;;;;;;;5021176;28;20196;-26
2022/12/02 10:15:24;;;;;;;18.57;10.67;;;;;;;;;;5005262;28;20210;-27
2022/12/02 10:17:53;;;;;;;17.30;10.03;;;;;;;;;;5000450;28;20207;-26
2022/12/02 10:20:21;;;;;;;17.47;10.07;;;;;;;;;;5015821;28;20238;-27
2022/12/02 10:23:11;;;;;;;17.63;10.57;;;;;;;;;;5004955;28;20207;-26
2022/12/02 10:25:39;;;;;;;18.20;10.33;;;;;;;;;;5012655;28;20196;-27
2022/12/02 10:28:06;;;;;;;16.73;10.70;;;;;;;;;;4998183;28;20207;-24
2022/12/02 10:30:33;;;;;;;16.37;10.03;;;;;;;;;;5009516;28;20223;-26
2022/12/02 10:33:02;;;;;;;18.07;10.63;;;;;;;;;;5001782;28;20211;-26
2022/12/02 10:35:43;;;;;;;15.57;10.17;;;;;;;;;;5003179;28;20199;-27
2022/12/02 10:38:17;;;;;;;20.33;11.33;;;;;;;;;;4999121;28;20281;-28
2022/12/02 10:40:44;;;;;;;18.93;10.27;;;;;;;;;;5009909;28;20298;-27
2022/12/02 10:43:14;;;;;;;18.93;10.43;;;;;;;;;;5002523;28;20211;-25
2022/12/02 10:45:41;;;;;;;16.10;9.63;;;;;;;;;;5002075;28;20208;-28
2022/12/02 10:48:14;;;;;;;16.90;10.10;;;;;;;;;;5010813;28;20302;-27
2022/12/02 10:50:41;;;;;;;18.03;10.20;;;;;;;;;;5011529;28;20322;-27
2022/12/02 10:53:12;;;;;;;16.43;10.13;;;;;;;;;;5008153;28;20209;-28
2022/12/02 10:55:39;;;;;;;15.87;9.03;;;;;;;;;;5005987;28;20216;-25
2022/12/02 10:58:07;;;;;;;15.03;9.07;;;;;;;;;;5006178;28;20203;-25
2022/12/02 11:00:34;;;;;;;15.70;9.57;;;;;;;;;;5009038;28;20219;-26
2022/12/02 11:03:04;;;;;;;15.03;9.57;;;;;;;;;;5004059;28;20211;-28
2022/12/02 11:05:34;;;;;;;18.93;11.10;;;;;;;;;;5013281;28;20210;-28
2022/12/02 11:08:02;;;;;;;16.30;9.83;;;;;;;;;;5020046;28;20207;-28
2022/12/02 11:10:34;;;;;;;14.23;8.47;;;;;;;;;;5002752;28;20230;-27
2022/12/02 11:13:08;;;;;;;16.67;9.13;;;;;;;;;;5023069;28;20297;-28
2022/12/02 11:15:37;;;;;;;17.20;9.70;;;;;;;;;;5007425;28;20242;-28
2022/12/02 11:18:04;;;;;;;16.37;9.20;;;;;;;;;;5013508;28;20204;-28
2022/12/02 11:20:53;;;;;;;20.90;10.03;;;;;;;;;;5012890;28;20310;-26
2022/12/02 11:23:22;;;;;;;16.53;9.17;;;;;;;;;;5010667;28;20213;-26
2022/12/02 11:25:53;;;;;;;14.83;8.70;;;;;;;;;;5007379;28;20273;-26
2022/12/02 11:28:47;;;;;;;14.93;8.57;;;;;;;;;;5014188;28;20290;-26
2022/12/02 11:31:27;;;;;;;14.50;9.20;;;;;;;;;;4982061;28;20266;-28
2022/12/02 11:34:12;;;;;;;14.67;8.53;;;;;;;;;;5008043;28;20251;-28
2022/12/02 11:36:40;;;;;;;12.47;7.33;;;;;;;;;;4992999;28;20207;-27
2022/12/02 11:39:09;;;;;;;12.50;8.13;;;;;;;;;;5007555;28;20215;-28
2022/12/02 11:41:54;;;;;;;14.13;7.87;;;;;;;;;;5003087;28;20302;-28
2022/12/02 11:44:22;;;;;;;15.33;8.70;;;;;;;;;;5011980;28;20227;-30
2022/12/02 11:46:50;;;;;;;11.97;7.50;;;;;;;;;;5003237;28;20236;-26
2022/12/02 11:49:26;;;;;;;14.50;8.00;;;;;;;;;;5010811;28;20769;-27
2022/12/02 11:52:01;;;;;;;13.83;8.80;;;;;;;;;;5016386;28;20314;-27
2022/12/02 11:54:29;;;;;;;11.20;7.53;;;;;;;;;;5001298;28;20204;-25
2022/12/02 11:56:56;;;;;;;11.17;7.27;;;;;;;;;;5016208;28;20213;-26
2022/12/02 11:59:25;;;;;;;10.50;7.07;;;;;;;;;;5015284;28;20203;-27
2022/12/02 12:02:07;;;;;;;10.30;5.80;;;;;;;;;;5005324;28;20224;-29
2022/12/02 12:04:34;;;;;;;10.93;5.77;;;;;;;;;;5014029;28;20258;-28
2022/12/02 12:07:02;;;;;;;9.33;5.87;;;;;;;;;;5016107;28;20279;-28
2022/12/02 12:09:31;;;;;;;7.87;5.30;;;;;;;;;;5005668;28;20266;-25
2022/12/02 12:12:08;;;;;;;6.53;4.70;;;;;;;;;;5014846;28;20227;-28
2022/12/02 12:14:50;;;;;;;10.80;5.63;;;;;;;;;;5011714;28;20199;-28
2022/12/02 12:17:18;;;;;;;8.33;6.13;;;;;;;;;;5007423;28;20204;-25
2022/12/02 12:19:45;;;;;;;8.73;5.27;;;;;;;;;;5012571;28;20203;-26
2022/12/02 12:22:27;;;;;;;8.10;5.73;;;;;;;;;;5028056;28;20257;-30
2022/12/02 12:25:16;;;;;;;7.90;5.20;;;;;;;;;;5006704;28;20637;-29
2022/12/02 12:27:43;;;;;;;10.07;6.13;;;;;;;;;;5014493;28;20261;-28
2022/12/02 12:30:13;;;;;;;8.30;5.53;;;;;;;;;;4999415;28;20228;-27
2022/12/02 12:32:40;;;;;;;10.13;6.30;;;;;;;;;;5016695;28;20229;-26
2022/12/02 12:35:08;;;;;;;8.03;5.53;;;;;;;;;;5014648;28;20296;-26
2022/12/02 12:37:36;;;;;;;10.00;5.70;;;;;;;;;;5032224;28;20234;-27
2022/12/02 12:40:04;;;;;;;7.83;5.77;;;;;;;;;;5003196;28;20732;-27
2022/12/02 12:42:31;;;;;;;13.77;5.87;;;;;;;;;;5008715;28;20211;-27
2022/12/02 12:44:58;;;;;;;8.17;5.23;;;;;;;;;;5008681;28;20208;-25
2022/12/02 12:47:26;;;;;;;8.77;6.00;;;;;;;;;;5002943;28;20210;-28
2022/12/02 12:49:53;;;;;;;7.87;5.23;;;;;;;;;;5007090;28;20223;-27
2022/12/02 12:52:20;;;;;;;8.77;5.30;;;;;;;;;;5014333;28;20232;-27
2022/12/02 12:54:49;;;;;;;8.00;5.10;;;;;;;;;;4996768;28;20284;-27
2022/12/02 12:57:19;;;;;;;7.93;5.30;;;;;;;;;;5002423;28;20203;-27
2022/12/02 12:59:46;;;;;;;8.27;5.27;;;;;;;;;;5013512;28;20217;-27
2022/12/02 13:02:13;;;;;;;7.13;5.00;;;;;;;;;;5009057;28;20231;-26
2022/12/02 13:04:40;;;;;;;6.67;4.90;;;;;;;;;;5012821;28;20554;-27
2022/12/02 13:07:07;;;;;;;8.30;4.97;;;;;;;;;;5004043;28;20211;-27
2022/12/02 13:09:34;;;;;;;6.27;4.63;;;;;;;;;;5004264;28;20233;-27
2022/12/02 13:12:02;;;;;;;7.27;4.73;;;;;;;;;;5010564;28;20235;-25
2022/12/02 13:14:30;;;;;;;7.30;4.97;;;;;;;;;;5005498;28;20214;-26
2022/12/02 13:16:57;;;;;;;9.10;4.53;;;;;;;;;;5002951;28;20297;-29
2022/12/02 13:21:51;;;;;;;6.67;3.90;;;;;;;;;;5137101;22;20252;-29
2022/12/02 13:24:18;;;;;;;5.77;4.03;;;;;;;;;;5049225;28;20297;-26
2022/12/02 13:26:46;;;;;;;5.17;3.63;;;;;;;;;;5050440;28;20273;-28
2022/12/02 13:29:13;;;;;;;5.80;3.60;;;;;;;;;;5058308;28;20252;-26
2022/12/02 13:31:41;;;;;;;4.87;4.07;;;;;;;;;;5051235;28;20226;-26
2022/12/02 13:34:08;;;;;;;3.90;3.50;;;;;;;;;;5055558;28;20212;-28
2022/12/02 13:36:36;;;;;;;5.80;4.30;;;;;;;;;;5059007;28;20194;-26
2022/12/02 13:39:03;;;;;;;4.97;3.70;;;;;;;;;;5034655;28;20305;-28
2022/12/02 13:41:30;;;;;;;4.50;3.67;;;;;;;;;;5049873;28;20291;-26
2022/12/02 13:43:57;;;;;;;5.90;3.60;;;;;;;;;;5065446;28;20197;-26
2022/12/02 13:46:35;;;;;;;4.40;3.70;;;;;;;;;;5052544;28;20237;-28
2022/12/02 13:49:04;;;;;;;6.77;3.70;;;;;;;;;;5058564;28;20284;-27
2022/12/02 13:51:31;;;;;;;5.77;3.77;;;;;;;;;;5047429;28;20230;-28
2022/12/02 13:53:58;;;;;;;4.77;3.70;;;;;;;;;;5049177;28;20210;-26
2022/12/02 13:56:25;;;;;;;4.77;3.70;;;;;;;;;;5060150;28;20198;-25
2022/12/02 13:58:52;;;;;;;4.17;3.23;;;;;;;;;;5052589;28;20644;-26
2022/12/02 14:01:22;;;;;;;5.53;3.60;;;;;;;;;;5042135;28;20240;-26
2022/12/02 14:03:50;;;;;;;3.20;2.90;;;;;;;;;;5054264;28;20224;-26
2022/12/02 14:06:18;;;;;;;3.90;3.13;;;;;;;;;;5062515;28;20216;-26
2022/12/02 14:08:52;;;;;;;7.03;5.20;;;;;;;;;;5066321;28;20201;-26
2022/12/02 14:11:19;;;;;;;5.97;4.80;;;;;;;;;;5055400;28;20236;-28
2022/12/02 14:13:46;;;;;;;9.13;6.60;;;;;;;;;;5060569;28;20619;-27
2022/12/02 14:16:15;;;;;;;6.13;4.90;;;;;;;;;;5043706;28;20226;-25
2022/12/02 14:18:42;;;;;;;5.70;4.67;;;;;;;;;;5044343;28;20208;-28
2022/12/02 14:21:09;;;;;;;8.20;7.40;;;;;;;;;;5052319;28;20233;-28
2022/12/02 14:23:37;;;;;;;6.10;5.17;;;;;;;;;;5047585;28;20206;-26
2022/12/02 14:26:04;;;;;;;6.20;5.47;;;;;;;;;;5049044;28;20217;-26
2022/12/02 14:28:31;;;;;;;10.57;9.57;;;;;;;;;;5052881;28;20217;-26
2022/12/02 14:30:59;;;;;;;8.33;7.43;;;;;;;;;;5050139;28;20242;-27
2022/12/02 14:33:26;;;;;;;8.77;7.97;;;;;;;;;;5044341;28;20573;-29
2022/12/02 14:35:53;;;;;;;10.03;6.33;;;;;;;;;;5047457;28;20603;-27
2022/12/02 14:38:20;;;;;;;5.80;4.70;;;;;;;;;;5048014;28;20210;-28
2022/12/02 14:40:49;;;;;;;4.30;3.70;;;;;;;;;;5052511;28;20225;-28
2022/12/02 14:43:16;;;;;;;6.20;5.63;;;;;;;;;;5052209;28;20208;-27